Johann Essberger — CQKG — position and weather

sailwx.info

Track history (hours):
 
Tides and Currents Weather Stations Pressure Air Temp Water Temp Dewpoint Dewpoint Depression Visibility Wind Speed Wind Dir Waves Ship Positions

Johann Essberger

Last reported at 2016-Dec-10 05:10 UTC. Time now 2016-Dec-10 09:02 UTC.
Position N 52°25' E 004°45'.

Length 100 m; draft 5.7 m.

Type: Tanker. MMSI: 255804460.

Date/timePositionNaut miles runAvg speedWind from/ knotsBaromVisibWave heightAir tempDewpointWater temp
2016-Dec-10 05:10N 52°25' E 004°45'0 0.0
2016-Dec-10 00:21N 52°25' E 004°45'0 0.0
2016-Dec-09 23:27N 52°25' E 004°45'0 0.0
2016-Dec-09 21:16N 52°25' E 004°45'1 1.8
2016-Dec-09 20:34N 52°26' E 004°43'5 5.3
2016-Dec-09 19:33N 52°28' E 004°35'9 8.8
2016-Dec-09 18:33N 52°28' E 004°21'1010.2
2016-Dec-09 17:33N 52°28' E 004°04'1110.5
2016-Dec-09 16:30N 52°26' E 003°46'50 3.1
2016-Dec-09 00:09N 51°38' E 003°21'814.4
2016-Dec-08 23:33N 51°31' E 003°27'1111.5
2016-Dec-08 22:33N 51°25' E 003°42'1010.2
2016-Dec-08 21:33N 51°26' E 003°59'10 9.6
2016-Dec-08 20:33N 51°22' E 004°13'7 7.2
2016-Dec-08 19:33N 51°17' E 004°20'3 2.8
2016-Dec-08 18:34N 51°19' E 004°19'2 0.3
2016-Dec-08 09:05N 51°22' E 004°17'1 1.2
2016-Dec-08 08:34N 51°21' E 004°18'4 3.3
2016-Dec-08 07:28N 51°18' E 004°20'0 0.0
2016-Dec-07 04:33N 51°18' E 004°20'3 2.7
2016-Dec-07 03:17N 51°21' E 004°17'3 3.8
2016-Dec-07 02:33N 51°22' E 004°13'10 9.9
2016-Dec-07 01:33N 51°26' E 003°58'1010.0
2016-Dec-07 00:33N 51°23' E 003°43'9 9.4
2016-Dec-06 23:34N 51°28' E 003°31'1212.2
2016-Dec-06 22:33N 51°38' E 003°20'1111.1
2016-Dec-06 21:33N 51°46' E 003°07'1110.7
2016-Dec-06 20:33N 51°49' E 002°50'6911.6
2016-Dec-06 14:34N 52°48' E 001°52'1414.0
2016-Dec-06 13:33N 52°57' E 001°34'1414.0
2016-Dec-06 12:33N 53°09' E 001°21'5913.5
2016-Dec-06 08:11N 53°59' E 000°28'913.8
2016-Dec-06 07:33N 54°06' E 000°20'1413.5
2016-Dec-06 06:33N 54°16' E 000°03'1313.4
2016-Dec-06 05:33N 54°25' W 000°13'1312.9
2016-Dec-06 04:33N 54°34' W 000°30'  
2016-Dec-03 03:09N 54°36' W 000°21'5 8.7
2016-Dec-03 02:33N 54°35' W 000°12'8 8.1
2016-Dec-03 01:33N 54°29' W 000°02'9 8.9
2016-Dec-03 00:33N 54°22' E 000°06'49 8.1
2016-Dec-02 18:33N 53°33' E 000°09'1110.6
2016-Dec-02 17:33N 53°37' W 000°07'2 0.2
2016-Dec-02 04:33N 53°38' W 000°11'1 0.9
2016-Dec-02 03:33N 53°38' W 000°10'1111.5
2016-Dec-02 02:33N 53°34' E 000°08'46 9.1
2016-Dec-01 21:28N 53°11' E 001°15'1010.5
2016-Dec-01 20:33N 53°04' E 001°26'1010.0
2016-Dec-01 19:33N 52°56' E 001°36'1010.4
2016-Dec-01 18:33N 52°48' E 001°48'8812.0
2016-Dec-01 11:13N 51°40' E 003°19'7 9.9
2016-Dec-01 10:33N 51°34' E 003°24'1010.4
2016-Dec-01 09:34N 51°26' E 003°35'7 7.5
2016-Dec-01 08:33N 51°22' E 003°45'1111.1
2016-Dec-01 07:33N 51°25' E 004°02'1110.7
2016-Dec-01 06:33N 51°19' E 004°16'3 3.0
2016-Dec-01 05:30N 51°17' E 004°20'0 0.2
2016-Dec-01 04:33N 51°17' E 004°20'0 0.0
2016-Dec-01 03:33N 51°17' E 004°20'0 0.0
2016-Dec-01 02:33N 51°17' E 004°20'0 0.0
2016-Dec-01 01:26N 51°17' E 004°20'0 0.0
2016-Dec-01 00:28N 51°17' E 004°20'0 0.0
2016-Nov-30 23:31N 51°17' E 004°20'0 0.0
2016-Nov-30 22:28N 51°17' E 004°20'0 0.0
2016-Nov-30 21:25N 51°17' E 004°20'0 0.0
2016-Nov-30 20:28N 51°17' E 004°20'0 0.0
2016-Nov-30 19:31N 51°17' E 004°20'0 0.1
2016-Nov-30 18:33N 51°17' E 004°20'1 1.3
2016-Nov-30 17:31N 51°16' E 004°22'0 0.0
2016-Nov-30 16:31N 51°16' E 004°22'0 0.0
2016-Nov-30 15:28N 51°16' E 004°22'0 0.0
2016-Nov-30 14:31N 51°16' E 004°22'0 0.0
2016-Nov-30 13:31N 51°16' E 004°22'0 0.0
2016-Nov-30 12:31N 51°16' E 004°22'0 0.0
2016-Nov-30 11:28N 51°16' E 004°22'0 0.0
2016-Nov-30 10:16N 51°16' E 004°22'0 0.0
2016-Nov-30 09:31N 51°16' E 004°22'0 0.0
2016-Nov-30 08:31N 51°16' E 004°22'0 0.0
2016-Nov-30 07:31N 51°16' E 004°22'0 0.0
2016-Nov-30 06:33N 51°16' E 004°22'0 0.0
2016-Nov-30 05:33N 51°16' E 004°22'  
Track history (hours):
 
Tides and Currents Weather Stations Pressure Air Temp Water Temp Dewpoint Dewpoint Depression Visibility Wind Speed Wind Dir Waves Ship Positions

Johann Essberger

Last reported at 2016-Dec-10 05:10 UTC. Time now 2016-Dec-10 09:02 UTC.
Position N 52°25' E 004°45'.

Length 100 m; draft 5.7 m.

Type: Tanker. MMSI: 255804460.

Date/timePositionNaut miles runAvg speedWind from/ knotsBaromVisibWave heightAir tempDewpointWater temp
2016-Dec-10 05:10N 52°25' E 004°45'0 0.0
2016-Dec-10 00:21N 52°25' E 004°45'0 0.0
2016-Dec-09 23:27N 52°25' E 004°45'0 0.0
2016-Dec-09 21:16N 52°25' E 004°45'1 1.8
2016-Dec-09 20:34N 52°26' E 004°43'5 5.3
2016-Dec-09 19:33N 52°28' E 004°35'9 8.8
2016-Dec-09 18:33N 52°28' E 004°21'1010.2
2016-Dec-09 17:33N 52°28' E 004°04'1110.5
2016-Dec-09 16:30N 52°26' E 003°46'50 3.1
2016-Dec-09 00:09N 51°38' E 003°21'814.4
2016-Dec-08 23:33N 51°31' E 003°27'1111.5
2016-Dec-08 22:33N 51°25' E 003°42'1010.2
2016-Dec-08 21:33N 51°26' E 003°59'10 9.6
2016-Dec-08 20:33N 51°22' E 004°13'7 7.2
2016-Dec-08 19:33N 51°17' E 004°20'3 2.8
2016-Dec-08 18:34N 51°19' E 004°19'2 0.3
2016-Dec-08 09:05N 51°22' E 004°17'1 1.2
2016-Dec-08 08:34N 51°21' E 004°18'4 3.3
2016-Dec-08 07:28N 51°18' E 004°20'0 0.0
2016-Dec-07 04:33N 51°18' E 004°20'3 2.7
2016-Dec-07 03:17N 51°21' E 004°17'3 3.8
2016-Dec-07 02:33N 51°22' E 004°13'10 9.9
2016-Dec-07 01:33N 51°26' E 003°58'1010.0
2016-Dec-07 00:33N 51°23' E 003°43'9 9.4
2016-Dec-06 23:34N 51°28' E 003°31'1212.2
2016-Dec-06 22:33N 51°38' E 003°20'1111.1
2016-Dec-06 21:33N 51°46' E 003°07'1110.7
2016-Dec-06 20:33N 51°49' E 002°50'6911.6
2016-Dec-06 14:34N 52°48' E 001°52'1414.0
2016-Dec-06 13:33N 52°57' E 001°34'1414.0
2016-Dec-06 12:33N 53°09' E 001°21'5913.5
2016-Dec-06 08:11N 53°59' E 000°28'913.8
2016-Dec-06 07:33N 54°06' E 000°20'1413.5
2016-Dec-06 06:33N 54°16' E 000°03'1313.4
2016-Dec-06 05:33N 54°25' W 000°13'1312.9
2016-Dec-06 04:33N 54°34' W 000°30'  
2016-Dec-03 03:09N 54°36' W 000°21'5 8.7
2016-Dec-03 02:33N 54°35' W 000°12'8 8.1
2016-Dec-03 01:33N 54°29' W 000°02'9 8.9
2016-Dec-03 00:33N 54°22' E 000°06'49 8.1
2016-Dec-02 18:33N 53°33' E 000°09'1110.6
2016-Dec-02 17:33N 53°37' W 000°07'2 0.2
2016-Dec-02 04:33N 53°38' W 000°11'1 0.9
2016-Dec-02 03:33N 53°38' W 000°10'1111.5
2016-Dec-02 02:33N 53°34' E 000°08'46 9.1
2016-Dec-01 21:28N 53°11' E 001°15'1010.5
2016-Dec-01 20:33N 53°04' E 001°26'1010.0
2016-Dec-01 19:33N 52°56' E 001°36'1010.4
2016-Dec-01 18:33N 52°48' E 001°48'8812.0
2016-Dec-01 11:13N 51°40' E 003°19'7 9.9
2016-Dec-01 10:33N 51°34' E 003°24'1010.4
2016-Dec-01 09:34N 51°26' E 003°35'7 7.5
2016-Dec-01 08:33N 51°22' E 003°45'1111.1
2016-Dec-01 07:33N 51°25' E 004°02'1110.7
2016-Dec-01 06:33N 51°19' E 004°16'3 3.0
2016-Dec-01 05:30N 51°17' E 004°20'0 0.2
2016-Dec-01 04:33N 51°17' E 004°20'0 0.0
2016-Dec-01 03:33N 51°17' E 004°20'0 0.0
2016-Dec-01 02:33N 51°17' E 004°20'0 0.0
2016-Dec-01 01:26N 51°17' E 004°20'0 0.0
2016-Dec-01 00:28N 51°17' E 004°20'0 0.0
2016-Nov-30 23:31N 51°17' E 004°20'0 0.0
2016-Nov-30 22:28N 51°17' E 004°20'0 0.0
2016-Nov-30 21:25N 51°17' E 004°20'0 0.0
2016-Nov-30 20:28N 51°17' E 004°20'0 0.0
2016-Nov-30 19:31N 51°17' E 004°20'0 0.1
2016-Nov-30 18:33N 51°17' E 004°20'1 1.3
2016-Nov-30 17:31N 51°16' E 004°22'0 0.0
2016-Nov-30 16:31N 51°16' E 004°22'0 0.0
2016-Nov-30 15:28N 51°16' E 004°22'0 0.0
2016-Nov-30 14:31N 51°16' E 004°22'0 0.0
2016-Nov-30 13:31N 51°16' E 004°22'0 0.0
2016-Nov-30 12:31N 51°16' E 004°22'0 0.0
2016-Nov-30 11:28N 51°16' E 004°22'0 0.0
2016-Nov-30 10:16N 51°16' E 004°22'0 0.0
2016-Nov-30 09:31N 51°16' E 004°22'0 0.0
2016-Nov-30 08:31N 51°16' E 004°22'0 0.0
2016-Nov-30 07:31N 51°16' E 004°22'0 0.0
2016-Nov-30 06:33N 51°16' E 004°22'0 0.0
2016-Nov-30 05:33N 51°16' E 004°22'  

Dump ship's entire track history